sensor_id;sensor_type;location;lat;lon;timestamp;temperature;humidity
31729;DHT22;18309;43.658;1.312;2023-04-03T00:01:13;11.60;99.90
31729;DHT22;18309;43.658;1.312;2023-04-03T00:03:40;11.60;99.90
31729;DHT22;18309;43.658;1.312;2023-04-03T00:06:07;11.50;99.90
31729;DHT22;18309;43.658;1.312;2023-04-03T00:08:34;11.50;99.90
31729;DHT22;18309;43.658;1.312;2023-04-03T00:11:00;11.50;99.90
31729;DHT22;18309;43.658;1.312;2023-04-03T00:13:26;11.50;99.90
31729;DHT22;18309;43.658;1.312;2023-04-03T00:15:52;11.50;99.90
31729;DHT22;18309;43.658;1.312;2023-04-03T00:18:18;11.50;99.90
31729;DHT22;18309;43.658;1.312;2023-04-03T00:20:44;11.50;99.90
31729;DHT22;18309;43.658;1.312;2023-04-03T00:23:10;11.50;99.90
31729;DHT22;18309;43.658;1.312;2023-04-03T00:25:36;11.50;99.90
31729;DHT22;18309;43.658;1.312;2023-04-03T00:28:02;11.50;99.90
31729;DHT22;18309;43.658;1.312;2023-04-03T00:30:28;11.50;99.90
31729;DHT22;18309;43.658;1.312;2023-04-03T00:32:54;11.40;99.90
31729;DHT22;18309;43.658;1.312;2023-04-03T00:35:21;11.50;99.90
31729;DHT22;18309;43.658;1.312;2023-04-03T00:37:47;11.50;99.90
31729;DHT22;18309;43.658;1.312;2023-04-03T00:40:14;11.50;99.90
31729;DHT22;18309;43.658;1.312;2023-04-03T00:42:43;11.50;99.90
31729;DHT22;18309;43.658;1.312;2023-04-03T00:45:22;11.40;99.90
31729;DHT22;18309;43.658;1.312;2023-04-03T00:47:48;11.40;99.90
31729;DHT22;18309;43.658;1.312;2023-04-03T00:50:14;11.40;99.90
31729;DHT22;18309;43.658;1.312;2023-04-03T00:52:40;11.40;99.90
31729;DHT22;18309;43.658;1.312;2023-04-03T00:55:09;11.40;99.90
31729;DHT22;18309;43.658;1.312;2023-04-03T00:57:35;11.40;99.90
31729;DHT22;18309;43.658;1.312;2023-04-03T01:00:11;11.40;99.90
31729;DHT22;18309;43.658;1.312;2023-04-03T01:02:38;11.40;99.90
31729;DHT22;18309;43.658;1.312;2023-04-03T01:05:06;11.40;99.90
31729;DHT22;18309;43.658;1.312;2023-04-03T01:07:32;11.40;99.90
31729;DHT22;18309;43.658;1.312;2023-04-03T01:10:06;11.40;99.90
31729;DHT22;18309;43.658;1.312;2023-04-03T01:12:42;11.40;99.90
31729;DHT22;18309;43.658;1.312;2023-04-03T01:15:18;11.40;99.90
31729;DHT22;18309;43.658;1.312;2023-04-03T01:25:51;11.40;99.90
31729;DHT22;18309;43.658;1.312;2023-04-03T01:28:29;11.30;99.90
31729;DHT22;18309;43.658;1.312;2023-04-03T01:33:33;11.30;99.90
31729;DHT22;18309;43.658;1.312;2023-04-03T01:35:59;11.30;99.90
31729;DHT22;18309;43.658;1.312;2023-04-03T01:38:25;11.30;99.90
31729;DHT22;18309;43.658;1.312;2023-04-03T01:40:56;11.30;99.90
31729;DHT22;18309;43.658;1.312;2023-04-03T01:43:22;11.30;99.90
31729;DHT22;18309;43.658;1.312;2023-04-03T01:45:48;11.30;99.90
31729;DHT22;18309;43.658;1.312;2023-04-03T01:48:15;11.20;99.90
31729;DHT22;18309;43.658;1.312;2023-04-03T01:50:41;11.30;99.90
31729;DHT22;18309;43.658;1.312;2023-04-03T01:53:07;11.20;99.90
31729;DHT22;18309;43.658;1.312;2023-04-03T01:55:33;11.20;99.90
31729;DHT22;18309;43.658;1.312;2023-04-03T01:57:58;11.20;99.90
31729;DHT22;18309;43.658;1.312;2023-04-03T02:00:24;11.20;99.90
31729;DHT22;18309;43.658;1.312;2023-04-03T02:02:50;11.20;99.90
31729;DHT22;18309;43.658;1.312;2023-04-03T02:05:16;11.20;99.90
31729;DHT22;18309;43.658;1.312;2023-04-03T02:07:41;11.20;99.90
31729;DHT22;18309;43.658;1.312;2023-04-03T02:10:07;11.20;99.90
31729;DHT22;18309;43.658;1.312;2023-04-03T02:12:33;11.20;99.90
31729;DHT22;18309;43.658;1.312;2023-04-03T02:14:59;11.20;99.90
31729;DHT22;18309;43.658;1.312;2023-04-03T02:17:24;11.20;99.90
31729;DHT22;18309;43.658;1.312;2023-04-03T02:19:50;11.20;99.90
31729;DHT22;18309;43.658;1.312;2023-04-03T02:22:16;11.10;99.90
31729;DHT22;18309;43.658;1.312;2023-04-03T02:24:43;11.10;99.90
31729;DHT22;18309;43.658;1.312;2023-04-03T02:27:09;11.10;99.90
31729;DHT22;18309;43.658;1.312;2023-04-03T02:29:35;11.10;99.90
31729;DHT22;18309;43.658;1.312;2023-04-03T02:32:00;11.10;99.90
31729;DHT22;18309;43.658;1.312;2023-04-03T02:34:26;11.10;99.90
31729;DHT22;18309;43.658;1.312;2023-04-03T02:36:52;11.10;99.90
31729;DHT22;18309;43.658;1.312;2023-04-03T02:39:17;11.10;99.90
31729;DHT22;18309;43.658;1.312;2023-04-03T02:41:43;11.10;99.90
31729;DHT22;18309;43.658;1.312;2023-04-03T02:44:10;11.00;99.90
31729;DHT22;18309;43.658;1.312;2023-04-03T02:46:36;11.00;99.90
31729;DHT22;18309;43.658;1.312;2023-04-03T02:49:02;11.00;99.90
31729;DHT22;18309;43.658;1.312;2023-04-03T02:51:28;11.00;99.90
31729;DHT22;18309;43.658;1.312;2023-04-03T02:53:54;11.00;99.90
31729;DHT22;18309;43.658;1.312;2023-04-03T02:56:20;11.00;99.90
31729;DHT22;18309;43.658;1.312;2023-04-03T02:58:46;11.00;99.90
31729;DHT22;18309;43.658;1.312;2023-04-03T03:01:12;11.00;99.90
31729;DHT22;18309;43.658;1.312;2023-04-03T03:03:37;10.90;99.90
31729;DHT22;18309;43.658;1.312;2023-04-03T03:06:07;10.90;99.90
31729;DHT22;18309;43.658;1.312;2023-04-03T03:08:33;10.90;99.90
31729;DHT22;18309;43.658;1.312;2023-04-03T03:10:59;10.90;99.90
31729;DHT22;18309;43.658;1.312;2023-04-03T03:13:25;10.90;99.90
31729;DHT22;18309;43.658;1.312;2023-04-03T03:15:51;10.90;99.90
31729;DHT22;18309;43.658;1.312;2023-04-03T03:18:17;10.90;99.90
31729;DHT22;18309;43.658;1.312;2023-04-03T03:20:42;10.90;99.90
31729;DHT22;18309;43.658;1.312;2023-04-03T03:23:08;10.90;99.90
31729;DHT22;18309;43.658;1.312;2023-04-03T03:25:38;10.80;99.90
31729;DHT22;18309;43.658;1.312;2023-04-03T03:28:04;10.80;99.90
31729;DHT22;18309;43.658;1.312;2023-04-03T03:30:30;10.80;99.90
31729;DHT22;18309;43.658;1.312;2023-04-03T03:32:56;10.80;99.90
31729;DHT22;18309;43.658;1.312;2023-04-03T03:35:22;10.80;99.90
31729;DHT22;18309;43.658;1.312;2023-04-03T03:37:47;10.80;99.90
31729;DHT22;18309;43.658;1.312;2023-04-03T03:40:13;10.80;99.90
31729;DHT22;18309;43.658;1.312;2023-04-03T03:42:39;10.80;99.90
31729;DHT22;18309;43.658;1.312;2023-04-03T03:45:06;10.80;99.90
31729;DHT22;18309;43.658;1.312;2023-04-03T03:47:31;10.70;99.90
31729;DHT22;18309;43.658;1.312;2023-04-03T03:49:57;10.70;99.90
31729;DHT22;18309;43.658;1.312;2023-04-03T03:52:23;10.70;99.90
31729;DHT22;18309;43.658;1.312;2023-04-03T03:54:48;10.70;99.90
31729;DHT22;18309;43.658;1.312;2023-04-03T03:57:14;10.70;99.90
31729;DHT22;18309;43.658;1.312;2023-04-03T03:59:40;10.70;99.90
31729;DHT22;18309;43.658;1.312;2023-04-03T04:02:07;10.70;99.90
31729;DHT22;18309;43.658;1.312;2023-04-03T04:04:33;10.60;99.90
31729;DHT22;18309;43.658;1.312;2023-04-03T04:06:59;10.60;99.90
31729;DHT22;18309;43.658;1.312;2023-04-03T04:09:26;10.60;99.90
31729;DHT22;18309;43.658;1.312;2023-04-03T04:11:52;10.60;99.90
31729;DHT22;18309;43.658;1.312;2023-04-03T04:14:18;10.60;99.90
31729;DHT22;18309;43.658;1.312;2023-04-03T04:16:46;10.60;99.90
31729;DHT22;18309;43.658;1.312;2023-04-03T04:19:15;10.60;99.90
31729;DHT22;18309;43.658;1.312;2023-04-03T04:21:41;10.60;99.90
31729;DHT22;18309;43.658;1.312;2023-04-03T04:24:07;10.60;99.90
31729;DHT22;18309;43.658;1.312;2023-04-03T04:26:33;10.60;99.90
31729;DHT22;18309;43.658;1.312;2023-04-03T04:28:59;10.60;99.90
31729;DHT22;18309;43.658;1.312;2023-04-03T04:31:25;10.60;99.90
31729;DHT22;18309;43.658;1.312;2023-04-03T04:33:52;10.60;99.90
31729;DHT22;18309;43.658;1.312;2023-04-03T04:36:17;10.60;99.90
31729;DHT22;18309;43.658;1.312;2023-04-03T04:38:43;10.60;99.90
31729;DHT22;18309;43.658;1.312;2023-04-03T04:41:09;10.60;99.90
31729;DHT22;18309;43.658;1.312;2023-04-03T04:43:35;10.60;99.90
31729;DHT22;18309;43.658;1.312;2023-04-03T04:46:10;10.60;99.90
31729;DHT22;18309;43.658;1.312;2023-04-03T04:48:39;10.60;99.90
31729;DHT22;18309;43.658;1.312;2023-04-03T04:51:05;10.60;99.90
31729;DHT22;18309;43.658;1.312;2023-04-03T04:53:31;10.60;99.90
31729;DHT22;18309;43.658;1.312;2023-04-03T04:55:57;10.60;99.90
31729;DHT22;18309;43.658;1.312;2023-04-03T04:58:23;10.60;99.90
31729;DHT22;18309;43.658;1.312;2023-04-03T05:00:48;10.60;99.90
31729;DHT22;18309;43.658;1.312;2023-04-03T05:03:15;10.50;99.90
31729;DHT22;18309;43.658;1.312;2023-04-03T05:05:41;10.50;99.90
31729;DHT22;18309;43.658;1.312;2023-04-03T05:08:07;10.50;99.90
31729;DHT22;18309;43.658;1.312;2023-04-03T05:10:34;10.60;99.90
31729;DHT22;18309;43.658;1.312;2023-04-03T05:12:59;10.50;99.90
31729;DHT22;18309;43.658;1.312;2023-04-03T05:15:25;10.50;99.90
31729;DHT22;18309;43.658;1.312;2023-04-03T05:17:51;10.50;99.90
31729;DHT22;18309;43.658;1.312;2023-04-03T05:20:18;10.50;99.90
31729;DHT22;18309;43.658;1.312;2023-04-03T05:22:44;10.50;99.90
31729;DHT22;18309;43.658;1.312;2023-04-03T05:25:09;10.50;99.90
31729;DHT22;18309;43.658;1.312;2023-04-03T05:27:35;10.50;99.90
31729;DHT22;18309;43.658;1.312;2023-04-03T05:30:02;10.50;99.90
31729;DHT22;18309;43.658;1.312;2023-04-03T05:32:28;10.50;99.90
31729;DHT22;18309;43.658;1.312;2023-04-03T05:34:54;10.50;99.90
31729;DHT22;18309;43.658;1.312;2023-04-03T05:37:19;10.50;99.90
31729;DHT22;18309;43.658;1.312;2023-04-03T05:39:45;10.50;99.90
31729;DHT22;18309;43.658;1.312;2023-04-03T05:42:11;10.50;99.90
31729;DHT22;18309;43.658;1.312;2023-04-03T05:44:38;10.50;99.90
31729;DHT22;18309;43.658;1.312;2023-04-03T05:47:04;10.50;99.90
31729;DHT22;18309;43.658;1.312;2023-04-03T05:49:30;10.50;99.90
31729;DHT22;18309;43.658;1.312;2023-04-03T05:51:56;10.50;99.90
31729;DHT22;18309;43.658;1.312;2023-04-03T05:54:25;10.50;99.90
31729;DHT22;18309;43.658;1.312;2023-04-03T05:56:51;10.50;99.90
31729;DHT22;18309;43.658;1.312;2023-04-03T05:59:18;10.50;99.90
31729;DHT22;18309;43.658;1.312;2023-04-03T06:01:44;10.50;99.90
31729;DHT22;18309;43.658;1.312;2023-04-03T06:04:10;10.50;99.90
31729;DHT22;18309;43.658;1.312;2023-04-03T06:07:02;10.50;99.90
31729;DHT22;18309;43.658;1.312;2023-04-03T06:09:28;10.50;99.90
31729;DHT22;18309;43.658;1.312;2023-04-03T06:11:55;10.50;99.90
31729;DHT22;18309;43.658;1.312;2023-04-03T06:14:25;10.50;99.90
31729;DHT22;18309;43.658;1.312;2023-04-03T06:16:51;10.50;99.90
31729;DHT22;18309;43.658;1.312;2023-04-03T06:19:17;10.50;99.90
31729;DHT22;18309;43.658;1.312;2023-04-03T06:21:43;10.50;99.90
31729;DHT22;18309;43.658;1.312;2023-04-03T06:24:11;10.50;99.90
31729;DHT22;18309;43.658;1.312;2023-04-03T06:26:37;10.50;99.90
31729;DHT22;18309;43.658;1.312;2023-04-03T06:29:03;10.40;99.90
31729;DHT22;18309;43.658;1.312;2023-04-03T06:31:29;10.50;99.90
31729;DHT22;18309;43.658;1.312;2023-04-03T06:33:55;10.50;99.90
31729;DHT22;18309;43.658;1.312;2023-04-03T06:36:21;10.50;99.90
31729;DHT22;18309;43.658;1.312;2023-04-03T06:38:48;10.40;99.90
31729;DHT22;18309;43.658;1.312;2023-04-03T06:41:14;10.50;99.90
31729;DHT22;18309;43.658;1.312;2023-04-03T06:43:42;10.50;99.90
31729;DHT22;18309;43.658;1.312;2023-04-03T06:46:15;10.30;99.90
31729;DHT22;18309;43.658;1.312;2023-04-03T06:48:43;10.00;99.90
31729;DHT22;18309;43.658;1.312;2023-04-03T06:51:36;9.90;99.90
31729;DHT22;18309;43.658;1.312;2023-04-03T06:54:03;9.90;99.90
31729;DHT22;18309;43.658;1.312;2023-04-03T06:56:29;9.90;99.90
31729;DHT22;18309;43.658;1.312;2023-04-03T06:58:55;9.90;99.90
31729;DHT22;18309;43.658;1.312;2023-04-03T07:01:24;9.80;99.90
31729;DHT22;18309;43.658;1.312;2023-04-03T07:03:51;9.80;99.90
31729;DHT22;18309;43.658;1.312;2023-04-03T07:06:18;9.80;99.90
31729;DHT22;18309;43.658;1.312;2023-04-03T07:08:45;9.80;99.90
31729;DHT22;18309;43.658;1.312;2023-04-03T07:11:12;9.80;99.90
31729;DHT22;18309;43.658;1.312;2023-04-03T07:13:38;9.70;99.90
31729;DHT22;18309;43.658;1.312;2023-04-03T07:16:04;9.70;99.90
31729;DHT22;18309;43.658;1.312;2023-04-03T07:18:32;9.70;99.90
31729;DHT22;18309;43.658;1.312;2023-04-03T07:20:58;9.70;99.90
31729;DHT22;18309;43.658;1.312;2023-04-03T07:23:24;9.70;99.90
31729;DHT22;18309;43.658;1.312;2023-04-03T07:25:51;9.70;99.90
31729;DHT22;18309;43.658;1.312;2023-04-03T07:28:18;9.70;99.90
31729;DHT22;18309;43.658;1.312;2023-04-03T07:30:50;9.70;99.90
31729;DHT22;18309;43.658;1.312;2023-04-03T07:33:17;9.70;99.90
31729;DHT22;18309;43.658;1.312;2023-04-03T07:35:44;9.80;99.90
31729;DHT22;18309;43.658;1.312;2023-04-03T07:38:11;9.80;99.90
31729;DHT22;18309;43.658;1.312;2023-04-03T07:40:39;9.80;99.90
31729;DHT22;18309;43.658;1.312;2023-04-03T07:43:05;9.80;99.90
31729;DHT22;18309;43.658;1.312;2023-04-03T07:45:33;9.80;99.90
31729;DHT22;18309;43.658;1.312;2023-04-03T07:48:00;9.90;99.90
31729;DHT22;18309;43.658;1.312;2023-04-03T07:50:26;9.90;99.90
31729;DHT22;18309;43.658;1.312;2023-04-03T07:52:52;9.90;99.90
31729;DHT22;18309;43.658;1.312;2023-04-03T07:55:20;9.90;99.90
31729;DHT22;18309;43.658;1.312;2023-04-03T07:57:45;9.90;99.90
31729;DHT22;18309;43.658;1.312;2023-04-03T08:00:12;9.90;99.90
31729;DHT22;18309;43.658;1.312;2023-04-03T08:02:38;10.00;99.90
31729;DHT22;18309;43.658;1.312;2023-04-03T08:05:04;10.00;99.90
31729;DHT22;18309;43.658;1.312;2023-04-03T08:07:30;10.00;99.90
31729;DHT22;18309;43.658;1.312;2023-04-03T08:09:55;10.00;99.90
31729;DHT22;18309;43.658;1.312;2023-04-03T08:12:21;10.00;99.90
31729;DHT22;18309;43.658;1.312;2023-04-03T08:14:47;9.90;99.90
31729;DHT22;18309;43.658;1.312;2023-04-03T08:17:12;9.90;99.90
31729;DHT22;18309;43.658;1.312;2023-04-03T08:19:40;10.00;99.90
31729;DHT22;18309;43.658;1.312;2023-04-03T08:22:06;10.00;99.90
31729;DHT22;18309;43.658;1.312;2023-04-03T08:24:33;10.00;99.90
31729;DHT22;18309;43.658;1.312;2023-04-03T08:26:58;10.00;99.90
31729;DHT22;18309;43.658;1.312;2023-04-03T08:29:24;10.00;99.90
31729;DHT22;18309;43.658;1.312;2023-04-03T08:31:51;10.00;99.90
31729;DHT22;18309;43.658;1.312;2023-04-03T08:34:17;10.00;99.90
31729;DHT22;18309;43.658;1.312;2023-04-03T08:36:43;10.00;99.90
31729;DHT22;18309;43.658;1.312;2023-04-03T08:39:09;10.00;99.90
31729;DHT22;18309;43.658;1.312;2023-04-03T08:41:41;10.10;99.90
31729;DHT22;18309;43.658;1.312;2023-04-03T08:49:26;10.20;99.90
31729;DHT22;18309;43.658;1.312;2023-04-03T08:51:54;10.20;99.90
31729;DHT22;18309;43.658;1.312;2023-04-03T08:54:40;10.20;99.90
31729;DHT22;18309;43.658;1.312;2023-04-03T08:57:10;10.20;99.90
31729;DHT22;18309;43.658;1.312;2023-04-03T08:59:38;10.20;99.90
31729;DHT22;18309;43.658;1.312;2023-04-03T09:02:25;10.30;99.90
31729;DHT22;18309;43.658;1.312;2023-04-03T09:04:53;10.40;99.90
31729;DHT22;18309;43.658;1.312;2023-04-03T09:07:42;10.40;99.90
31729;DHT22;18309;43.658;1.312;2023-04-03T09:10:12;10.60;99.90
31729;DHT22;18309;43.658;1.312;2023-04-03T09:12:57;10.70;99.90
31729;DHT22;18309;43.658;1.312;2023-04-03T09:15:25;10.70;99.90
31729;DHT22;18309;43.658;1.312;2023-04-03T09:18:09;10.70;99.90
31729;DHT22;18309;43.658;1.312;2023-04-03T09:23:42;10.80;99.90
31729;DHT22;18309;43.658;1.312;2023-04-03T09:26:09;10.90;99.90
31729;DHT22;18309;43.658;1.312;2023-04-03T09:28:39;10.90;99.90
31729;DHT22;18309;43.658;1.312;2023-04-03T09:31:21;10.80;99.90
31729;DHT22;18309;43.658;1.312;2023-04-03T09:33:51;11.00;99.90
31729;DHT22;18309;43.658;1.312;2023-04-03T09:36:40;11.20;99.90
31729;DHT22;18309;43.658;1.312;2023-04-03T09:39:28;11.30;99.90
31729;DHT22;18309;43.658;1.312;2023-04-03T09:44:26;11.30;99.90
31729;DHT22;18309;43.658;1.312;2023-04-03T09:46:52;11.40;99.90
31729;DHT22;18309;43.658;1.312;2023-04-03T09:49:18;11.30;99.90
31729;DHT22;18309;43.658;1.312;2023-04-03T09:51:45;11.30;99.90
31729;DHT22;18309;43.658;1.312;2023-04-03T09:54:35;11.20;99.90
31729;DHT22;18309;43.658;1.312;2023-04-03T09:57:13;11.30;99.90
31729;DHT22;18309;43.658;1.312;2023-04-03T09:59:46;11.40;99.90
31729;DHT22;18309;43.658;1.312;2023-04-03T10:02:30;11.40;99.90
31729;DHT22;18309;43.658;1.312;2023-04-03T10:04:56;11.40;99.90
31729;DHT22;18309;43.658;1.312;2023-04-03T10:07:32;11.40;99.90
31729;DHT22;18309;43.658;1.312;2023-04-03T10:10:16;11.50;99.90
31729;DHT22;18309;43.658;1.312;2023-04-03T10:12:43;11.50;99.90
31729;DHT22;18309;43.658;1.312;2023-04-03T10:15:17;11.50;99.90
31729;DHT22;18309;43.658;1.312;2023-04-03T10:18:02;11.60;99.90
31729;DHT22;18309;43.658;1.312;2023-04-03T10:20:49;11.70;99.90
31729;DHT22;18309;43.658;1.312;2023-04-03T10:23:42;11.60;99.70
31729;DHT22;18309;43.658;1.312;2023-04-03T10:26:57;11.80;99.90
31729;DHT22;18309;43.658;1.312;2023-04-03T10:31:58;11.90;99.50
31729;DHT22;18309;43.658;1.312;2023-04-03T10:34:29;11.90;99.90
31729;DHT22;18309;43.658;1.312;2023-04-03T10:40:01;11.80;98.80
31729;DHT22;18309;43.658;1.312;2023-04-03T10:45:20;12.00;99.50
31729;DHT22;18309;43.658;1.312;2023-04-03T10:48:06;11.90;98.80
31729;DHT22;18309;43.658;1.312;2023-04-03T10:51:01;11.90;98.50
31729;DHT22;18309;43.658;1.312;2023-04-03T10:56:57;12.10;99.50
31729;DHT22;18309;43.658;1.312;2023-04-03T10:59:56;11.90;98.40
31729;DHT22;18309;43.658;1.312;2023-04-03T11:02:29;11.80;98.70
31729;DHT22;18309;43.658;1.312;2023-04-03T11:08:48;11.70;98.10
31729;DHT22;18309;43.658;1.312;2023-04-03T11:11:19;11.80;98.50
31729;DHT22;18309;43.658;1.312;2023-04-03T11:13:54;11.90;98.40
31729;DHT22;18309;43.658;1.312;2023-04-03T11:16:26;11.90;98.00
31729;DHT22;18309;43.658;1.312;2023-04-03T11:19:02;11.90;98.00
31729;DHT22;18309;43.658;1.312;2023-04-03T11:21:37;11.90;97.70
31729;DHT22;18309;43.658;1.312;2023-04-03T11:24:09;11.80;97.60
31729;DHT22;18309;43.658;1.312;2023-04-03T11:26:39;11.80;97.90
31729;DHT22;18309;43.658;1.312;2023-04-03T11:29:13;11.90;98.30
31729;DHT22;18309;43.658;1.312;2023-04-03T11:39:38;12.00;97.00
31729;DHT22;18309;43.658;1.312;2023-04-03T11:42:15;11.90;96.60
31729;DHT22;18309;43.658;1.312;2023-04-03T11:44:41;11.90;96.90
31729;DHT22;18309;43.658;1.312;2023-04-03T11:47:09;11.90;97.00
31729;DHT22;18309;43.658;1.312;2023-04-03T12:05:51;12.40;97.70
31729;DHT22;18309;43.658;1.312;2023-04-03T12:16:30;12.40;96.60
31729;DHT22;18309;43.658;1.312;2023-04-03T12:22:07;12.50;96.90
31729;DHT22;18309;43.658;1.312;2023-04-03T12:24:39;12.40;96.90
31729;DHT22;18309;43.658;1.312;2023-04-03T12:35:26;12.40;97.80
31729;DHT22;18309;43.658;1.312;2023-04-03T12:46:21;12.50;96.60
31729;DHT22;18309;43.658;1.312;2023-04-03T12:48:58;12.50;96.90
31729;DHT22;18309;43.658;1.312;2023-04-03T12:51:40;12.50;96.50
31729;DHT22;18309;43.658;1.312;2023-04-03T12:54:22;12.50;96.30
31729;DHT22;18309;43.658;1.312;2023-04-03T12:56:49;12.60;95.30
31729;DHT22;18309;43.658;1.312;2023-04-03T12:59:24;12.70;95.60
31729;DHT22;18309;43.658;1.312;2023-04-03T13:01:56;12.80;94.80
31729;DHT22;18309;43.658;1.312;2023-04-03T13:04:23;12.80;95.60
31729;DHT22;18309;43.658;1.312;2023-04-03T13:06:49;12.80;95.30
31729;DHT22;18309;43.658;1.312;2023-04-03T13:09:30;12.80;95.60
31729;DHT22;18309;43.658;1.312;2023-04-03T13:12:12;12.80;96.00
31729;DHT22;18309;43.658;1.312;2023-04-03T13:14:38;12.90;96.10
31729;DHT22;18309;43.658;1.312;2023-04-03T13:17:13;13.10;95.10
31729;DHT22;18309;43.658;1.312;2023-04-03T13:19:40;13.30;94.80
31729;DHT22;18309;43.658;1.312;2023-04-03T13:22:33;13.40;94.80
31729;DHT22;18309;43.658;1.312;2023-04-03T13:25:06;13.30;94.10
31729;DHT22;18309;43.658;1.312;2023-04-03T13:27:32;13.30;94.50
31729;DHT22;18309;43.658;1.312;2023-04-03T13:30:00;13.30;94.10
31729;DHT22;18309;43.658;1.312;2023-04-03T13:32:29;13.40;94.60
31729;DHT22;18309;43.658;1.312;2023-04-03T13:34:55;13.40;94.60
31729;DHT22;18309;43.658;1.312;2023-04-03T13:37:23;13.50;95.10
31729;DHT22;18309;43.658;1.312;2023-04-03T13:42:35;13.40;95.10
31729;DHT22;18309;43.658;1.312;2023-04-03T13:47:47;13.30;94.70
31729;DHT22;18309;43.658;1.312;2023-04-03T13:52:52;13.40;94.80
31729;DHT22;18309;43.658;1.312;2023-04-03T13:55:23;13.30;95.30
31729;DHT22;18309;43.658;1.312;2023-04-03T13:58:00;13.30;95.80
31729;DHT22;18309;43.658;1.312;2023-04-03T14:00:30;13.30;95.60
31729;DHT22;18309;43.658;1.312;2023-04-03T14:02:58;13.30;95.40
31729;DHT22;18309;43.658;1.312;2023-04-03T14:05:24;13.30;95.50
31729;DHT22;18309;43.658;1.312;2023-04-03T14:07:51;13.40;95.50
31729;DHT22;18309;43.658;1.312;2023-04-03T14:10:17;13.40;95.30
31729;DHT22;18309;43.658;1.312;2023-04-03T14:12:43;13.30;94.90
31729;DHT22;18309;43.658;1.312;2023-04-03T14:15:22;13.30;95.60
31729;DHT22;18309;43.658;1.312;2023-04-03T14:17:51;13.30;95.80
31729;DHT22;18309;43.658;1.312;2023-04-03T14:20:19;13.30;95.30
31729;DHT22;18309;43.658;1.312;2023-04-03T14:22:47;13.30;95.40
31729;DHT22;18309;43.658;1.312;2023-04-03T14:25:14;13.30;95.30
31729;DHT22;18309;43.658;1.312;2023-04-03T14:27:46;13.30;95.30
31729;DHT22;18309;43.658;1.312;2023-04-03T14:30:18;13.30;95.50
31729;DHT22;18309;43.658;1.312;2023-04-03T14:32:45;13.30;95.30
31729;DHT22;18309;43.658;1.312;2023-04-03T14:35:13;13.30;95.30
31729;DHT22;18309;43.658;1.312;2023-04-03T14:37:39;13.40;94.80
31729;DHT22;18309;43.658;1.312;2023-04-03T14:40:06;13.40;94.30
31729;DHT22;18309;43.658;1.312;2023-04-03T14:42:35;13.50;94.70
31729;DHT22;18309;43.658;1.312;2023-04-03T14:45:04;13.50;94.80
31729;DHT22;18309;43.658;1.312;2023-04-03T14:47:32;13.40;94.40
31729;DHT22;18309;43.658;1.312;2023-04-03T14:50:00;13.50;95.10
31729;DHT22;18309;43.658;1.312;2023-04-03T14:52:30;13.50;94.80
31729;DHT22;18309;43.658;1.312;2023-04-03T14:54:57;13.40;94.70
31729;DHT22;18309;43.658;1.312;2023-04-03T14:57:25;13.40;95.20
31729;DHT22;18309;43.658;1.312;2023-04-03T14:59:51;13.40;94.70
31729;DHT22;18309;43.658;1.312;2023-04-03T15:02:37;13.30;94.60
31729;DHT22;18309;43.658;1.312;2023-04-03T15:05:08;13.50;94.90
31729;DHT22;18309;43.658;1.312;2023-04-03T15:07:39;13.80;94.30
31729;DHT22;18309;43.658;1.312;2023-04-03T15:12:41;14.30;93.30
31729;DHT22;18309;43.658;1.312;2023-04-03T15:15:07;14.40;93.90
31729;DHT22;18309;43.658;1.312;2023-04-03T15:17:34;14.50;93.50
31729;DHT22;18309;43.658;1.312;2023-04-03T15:20:02;14.50;93.20
31729;DHT22;18309;43.658;1.312;2023-04-03T15:22:28;14.60;93.20
31729;DHT22;18309;43.658;1.312;2023-04-03T15:24:53;14.40;92.50
31729;DHT22;18309;43.658;1.312;2023-04-03T15:27:20;14.10;93.10
31729;DHT22;18309;43.658;1.312;2023-04-03T15:29:46;14.10;94.10
31729;DHT22;18309;43.658;1.312;2023-04-03T15:32:12;14.20;92.70
31729;DHT22;18309;43.658;1.312;2023-04-03T15:34:39;14.20;93.00
31729;DHT22;18309;43.658;1.312;2023-04-03T15:37:05;14.60;93.40
31729;DHT22;18309;43.658;1.312;2023-04-03T15:39:31;14.90;92.10
31729;DHT22;18309;43.658;1.312;2023-04-03T15:41:57;15.00;92.10
31729;DHT22;18309;43.658;1.312;2023-04-03T15:44:31;14.80;92.10
31729;DHT22;18309;43.658;1.312;2023-04-03T15:46:58;14.70;91.70
31729;DHT22;18309;43.658;1.312;2023-04-03T15:49:24;14.60;92.40
31729;DHT22;18309;43.658;1.312;2023-04-03T15:51:49;14.70;92.30
31729;DHT22;18309;43.658;1.312;2023-04-03T15:54:16;14.50;92.30
31729;DHT22;18309;43.658;1.312;2023-04-03T15:56:42;14.40;92.40
31729;DHT22;18309;43.658;1.312;2023-04-03T15:59:07;14.30;92.10
31729;DHT22;18309;43.658;1.312;2023-04-03T16:01:33;14.20;92.80
31729;DHT22;18309;43.658;1.312;2023-04-03T16:03:59;14.20;92.70
31729;DHT22;18309;43.658;1.312;2023-04-03T16:06:25;14.20;92.30
31729;DHT22;18309;43.658;1.312;2023-04-03T16:08:51;14.10;92.30
31729;DHT22;18309;43.658;1.312;2023-04-03T16:11:22;14.20;93.10
31729;DHT22;18309;43.658;1.312;2023-04-03T16:13:50;14.20;92.80
31729;DHT22;18309;43.658;1.312;2023-04-03T16:16:16;14.10;92.70
31729;DHT22;18309;43.658;1.312;2023-04-03T16:18:43;14.30;93.00
31729;DHT22;18309;43.658;1.312;2023-04-03T16:21:09;14.70;92.90
31729;DHT22;18309;43.658;1.312;2023-04-03T16:23:35;15.10;91.90
31729;DHT22;18309;43.658;1.312;2023-04-03T16:26:01;15.40;91.30
31729;DHT22;18309;43.658;1.312;2023-04-03T16:28:27;15.40;90.50
31729;DHT22;18309;43.658;1.312;2023-04-03T16:30:53;15.70;90.80
31729;DHT22;18309;43.658;1.312;2023-04-03T16:33:18;15.60;90.70
31729;DHT22;18309;43.658;1.312;2023-04-03T16:35:47;15.30;90.70
31729;DHT22;18309;43.658;1.312;2023-04-03T16:38:14;15.20;90.30
31729;DHT22;18309;43.658;1.312;2023-04-03T16:40:40;15.10;90.80
31729;DHT22;18309;43.658;1.312;2023-04-03T16:43:06;15.30;90.30
31729;DHT22;18309;43.658;1.312;2023-04-03T16:45:32;15.50;90.10
31729;DHT22;18309;43.658;1.312;2023-04-03T16:47:57;15.40;90.00
31729;DHT22;18309;43.658;1.312;2023-04-03T16:50:23;15.40;88.50
31729;DHT22;18309;43.658;1.312;2023-04-03T16:52:49;15.30;88.20
31729;DHT22;18309;43.658;1.312;2023-04-03T16:55:15;15.10;86.10
31729;DHT22;18309;43.658;1.312;2023-04-03T16:57:41;15.00;88.30
31729;DHT22;18309;43.658;1.312;2023-04-03T17:00:07;14.90;89.00
31729;DHT22;18309;43.658;1.312;2023-04-03T17:02:33;14.90;89.60
31729;DHT22;18309;43.658;1.312;2023-04-03T17:04:59;15.00;90.50
31729;DHT22;18309;43.658;1.312;2023-04-03T17:07:25;14.90;91.00
31729;DHT22;18309;43.658;1.312;2023-04-03T17:09:51;14.80;90.40
31729;DHT22;18309;43.658;1.312;2023-04-03T17:12:19;14.60;90.40
31729;DHT22;18309;43.658;1.312;2023-04-03T17:14:45;14.50;90.90
31729;DHT22;18309;43.658;1.312;2023-04-03T17:17:13;14.50;90.90
31729;DHT22;18309;43.658;1.312;2023-04-03T17:19:40;14.40;90.90
31729;DHT22;18309;43.658;1.312;2023-04-03T17:22:08;14.30;91.00